createdAt,value
2023-05-21T00:05:05.676Z,23
2023-05-21T00:10:24.199Z,23
2023-05-21T00:15:42.438Z,23
2023-05-21T00:21:00.604Z,23
2023-05-21T00:26:18.966Z,23
2023-05-21T00:31:37.387Z,23
2023-05-21T00:36:55.485Z,23.1
2023-05-21T00:42:14.046Z,23
2023-05-21T00:47:32.247Z,23.1
2023-05-21T00:52:50.635Z,23.1
2023-05-21T00:58:09.270Z,23.1
2023-05-21T01:03:27.663Z,23.1
2023-05-21T01:08:45.905Z,23.1
2023-05-21T01:14:04.122Z,23.1
2023-05-21T01:19:22.715Z,23.1
2023-05-21T01:24:41.122Z,23.1
2023-05-21T01:29:59.483Z,23.1
2023-05-21T01:35:17.919Z,23.1
2023-05-21T01:40:36.467Z,23.1
2023-05-21T01:45:54.742Z,23.1
2023-05-21T01:51:13.377Z,23.1
2023-05-21T01:56:31.968Z,23.1
2023-05-21T02:01:50.227Z,23.1
2023-05-21T02:07:08.773Z,23.1
2023-05-21T02:12:26.961Z,23.2
2023-05-21T02:17:45.636Z,23.1
2023-05-21T02:23:04.200Z,23.1
2023-05-21T02:28:22.364Z,23.1
2023-05-21T02:33:41.026Z,23.1
2023-05-21T02:38:59.266Z,23.1
2023-05-21T02:44:17.797Z,23.1
2023-05-21T02:49:36.184Z,23.1
2023-05-21T02:54:54.507Z,23.1
2023-05-21T03:00:13.076Z,23.1
2023-05-21T03:05:31.429Z,23.1
2023-05-21T03:10:49.616Z,23.1
2023-05-21T03:16:07.577Z,23.1
2023-05-21T03:21:26.185Z,23.2
2023-05-21T03:26:44.355Z,23.1
2023-05-21T03:32:02.633Z,23.1
2023-05-21T03:37:21.113Z,23.2
2023-05-21T03:42:39.294Z,23.1
2023-05-21T03:47:57.489Z,23.2
2023-05-21T03:53:15.587Z,23.2
2023-05-21T03:58:18.123Z,23.2
2023-05-21T04:03:40.682Z,23.2
2023-05-21T04:08:59.591Z,23.2
2023-05-21T04:14:17.975Z,23.2
2023-05-21T04:19:36.337Z,23.2
2023-05-21T04:24:54.738Z,23.2
2023-05-21T04:30:13.107Z,23.3
2023-05-21T04:35:31.309Z,23.3
2023-05-21T04:40:49.657Z,23.3
2023-05-21T04:45:52.241Z,23.3
2023-05-21T04:51:10.704Z,23.3
2023-05-21T04:56:29.308Z,23.3
2023-05-21T05:01:47.994Z,23.3
2023-05-21T05:07:06.365Z,23.3
2023-05-21T05:12:24.752Z,23.3
2023-05-21T05:17:42.885Z,23.3
2023-05-21T05:23:01.510Z,23.3
2023-05-21T05:28:19.719Z,23.3
2023-05-21T05:33:38.066Z,23.3
2023-05-21T05:38:56.630Z,23.4
2023-05-21T05:44:15.021Z,23.4
2023-05-21T05:49:33.234Z,23.4
2023-05-21T05:54:51.627Z,23.4
2023-05-21T06:00:09.785Z,23.4
2023-05-21T06:05:27.987Z,23.4
2023-05-21T06:10:46.430Z,23.5
2023-05-21T06:16:04.797Z,23.5
2023-05-21T06:21:22.927Z,23.5
2023-05-21T06:26:41.267Z,23.5
2023-05-21T06:31:59.947Z,23.5
2023-05-21T06:37:18.476Z,23.5
2023-05-21T06:42:37.024Z,23.5
2023-05-21T06:47:55.274Z,23.5
2023-05-21T06:53:13.807Z,23.5
2023-05-21T06:58:32.054Z,23.5
2023-05-21T07:03:50.106Z,23.5
2023-05-21T07:09:08.294Z,23.5
2023-05-21T07:14:11.044Z,23.5
2023-05-21T07:19:29.405Z,23.5
2023-05-21T07:24:47.754Z,23.5
2023-05-21T07:29:50.500Z,23.6
2023-05-21T07:35:08.851Z,23.5
2023-05-21T07:40:27.179Z,23.5
2023-05-21T07:45:45.517Z,23.5
2023-05-21T07:51:04.126Z,23.5
2023-05-21T07:56:22.411Z,23.5
2023-05-21T08:01:40.573Z,23.5
2023-05-21T08:06:59.240Z,23.5
2023-05-21T08:12:17.622Z,23.5
2023-05-21T08:17:36.128Z,23.5
2023-05-21T08:22:54.163Z,23.6
2023-05-21T08:28:12.699Z,23.6
2023-05-21T08:33:31.102Z,23.5
2023-05-21T08:38:49.212Z,23.6
2023-05-21T08:44:07.483Z,23.6
2023-05-21T08:49:27.692Z,23.6
2023-05-21T08:54:46.170Z,23.6
2023-05-21T09:00:04.670Z,23.6
2023-05-21T09:05:23.074Z,23.6
2023-05-21T09:10:41.554Z,23.6
2023-05-21T09:16:00.144Z,23.6
2023-05-21T09:21:18.353Z,23.6
2023-05-21T09:26:36.552Z,23.6
2023-05-21T09:31:54.958Z,23.6
2023-05-21T09:37:27.365Z,23.6
2023-05-21T09:42:46.357Z,23.6
2023-05-21T09:48:04.805Z,23.6
2023-05-21T09:53:23.465Z,23.7
2023-05-21T09:58:41.831Z,23.7
2023-05-21T10:04:00.395Z,23.7
2023-05-21T10:09:18.913Z,23.7
2023-05-21T10:14:37.510Z,23.7
2023-05-21T10:19:55.450Z,23.7
2023-05-21T10:25:16.876Z,23.7
2023-05-21T10:30:35.696Z,23.6
2023-05-21T10:35:54.229Z,23.6
2023-05-21T10:41:12.960Z,23.6
2023-05-21T10:46:34.629Z,23.6
2023-05-21T10:51:52.817Z,23.6
2023-05-21T10:57:11.172Z,23.6
2023-05-21T11:02:30.088Z,23.6
2023-05-21T11:07:48.697Z,23.5
2023-05-21T11:13:07.108Z,23.5
2023-05-21T11:18:25.617Z,23.4
2023-05-21T11:23:43.904Z,23.4
2023-05-21T11:29:02.233Z,23.4
2023-05-21T11:34:20.398Z,23.4
2023-05-21T11:39:38.545Z,23.4
2023-05-21T11:44:57.044Z,23.4
2023-05-21T11:50:15.263Z,23.3
2023-05-21T11:55:33.425Z,23.3
2023-05-21T12:00:51.592Z,23.3
2023-05-21T12:06:10.297Z,23.3
2023-05-21T12:11:28.746Z,23.2
2023-05-21T12:16:47.331Z,23.2
2023-05-21T12:22:05.934Z,23.2
2023-05-21T12:27:24.315Z,23.1
2023-05-21T12:32:42.895Z,23.1
2023-05-21T12:37:46.801Z,23.2
2023-05-21T12:43:05.486Z,23.2
2023-05-21T12:48:23.898Z,23.2
2023-05-21T12:53:42.164Z,23.2
2023-05-21T12:59:00.523Z,23.2
2023-05-21T13:04:19.004Z,23.2
2023-05-21T13:09:37.341Z,23.2
2023-05-21T13:14:55.545Z,23.2
2023-05-21T13:20:13.904Z,23.2
2023-05-21T13:25:33.756Z,23.2
2023-05-21T13:30:52.079Z,23.1
2023-05-21T13:36:10.820Z,23.2
2023-05-21T13:41:29.371Z,23.2
2023-05-21T13:46:47.947Z,23.2
2023-05-21T13:52:06.157Z,23.2
2023-05-21T13:57:24.330Z,23.2
2023-05-21T14:02:42.702Z,23.2
2023-05-21T14:07:45.327Z,23.2
2023-05-21T14:12:48.041Z,23.2
2023-05-21T14:18:06.113Z,23.2
2023-05-21T14:23:24.794Z,23.2
2023-05-21T14:28:43.135Z,23.2
2023-05-21T14:34:01.450Z,23.2
2023-05-21T14:39:19.767Z,23.2
2023-05-21T14:44:38.319Z,23.2
2023-05-21T14:49:56.864Z,23.2
2023-05-21T14:55:15.024Z,23.2
2023-05-21T15:00:33.396Z,23.2
2023-05-21T15:05:51.767Z,23.2
2023-05-21T15:11:10.002Z,23.2
2023-05-21T15:16:28.597Z,23.2
2023-05-21T15:21:47.295Z,23.2
2023-05-21T15:27:05.703Z,23.2
2023-05-21T15:32:23.765Z,23.3
2023-05-21T15:37:42.152Z,23.2
2023-05-21T15:43:00.590Z,23.2
2023-05-21T15:48:18.757Z,23.2
2023-05-21T15:53:37.103Z,23.2
2023-05-21T15:58:55.712Z,23.2
2023-05-21T16:04:14.297Z,23.2
2023-05-21T16:09:32.892Z,23
2023-05-21T16:14:51.305Z,23
2023-05-21T16:20:09.683Z,23
2023-05-21T16:25:28.035Z,23
2023-05-21T16:30:31.046Z,23
2023-05-21T16:35:49.629Z,23
2023-05-21T16:41:07.980Z,23
2023-05-21T16:46:26.388Z,23
2023-05-21T16:51:45.015Z,23
2023-05-21T16:57:03.333Z,23
2023-05-21T17:02:21.684Z,23
2023-05-21T17:07:40.068Z,23
2023-05-21T17:13:10.145Z,23
2023-05-21T17:18:40.931Z,23
2023-05-21T17:23:59.560Z,23
2023-05-21T17:29:17.923Z,23
2023-05-21T17:34:36.418Z,23
2023-05-21T17:39:55.897Z,23
2023-05-21T17:45:14.057Z,23
2023-05-21T17:50:32.454Z,23
2023-05-21T17:55:50.821Z,23
2023-05-21T18:01:09.323Z,23
2023-05-21T18:06:27.466Z,23
2023-05-21T18:11:46.003Z,23
2023-05-21T18:17:04.394Z,23
2023-05-21T18:27:53.624Z,23
2023-05-21T18:33:11.907Z,23
2023-05-21T18:38:30.329Z,23
2023-05-21T18:43:48.928Z,23
2023-05-21T18:49:07.076Z,23
2023-05-21T18:54:25.374Z,23
2023-05-21T18:59:44.176Z,23
2023-05-21T19:05:02.694Z,23
2023-05-21T19:10:21.153Z,23
2023-05-21T19:15:39.671Z,23
2023-05-21T19:20:58.198Z,23
2023-05-21T19:26:16.382Z,23
2023-05-21T19:31:34.398Z,23
2023-05-21T19:36:54.374Z,23
2023-05-21T19:42:12.645Z,23
2023-05-21T19:47:31.217Z,23
2023-05-21T19:52:49.537Z,23.1
2023-05-21T19:58:07.980Z,23.1
2023-05-21T20:03:27.021Z,23.1
2023-05-21T20:08:46.052Z,23.1
2023-05-21T20:14:04.529Z,23.2
2023-05-21T20:19:23.194Z,23.2
2023-05-21T20:24:41.148Z,23.2
2023-05-21T20:29:59.141Z,23.2
2023-05-21T20:35:18.560Z,23.2
2023-05-21T20:40:37.764Z,23.2
2023-05-21T20:45:56.077Z,23.2
2023-05-21T20:51:14.260Z,23.2
2023-05-21T20:56:43.209Z,23.2
2023-05-21T21:02:02.069Z,23.2
2023-05-21T21:07:21.633Z,23.2
2023-05-21T21:12:40.668Z,23.2
2023-05-21T21:17:59.085Z,23.2
2023-05-21T21:23:17.560Z,23.2
2023-05-21T21:28:36.205Z,23.3
2023-05-21T21:33:54.636Z,23.2
2023-05-21T21:39:13.396Z,23.2
2023-05-21T21:44:31.731Z,23.2
2023-05-21T21:49:50.092Z,23.2
2023-05-21T21:55:08.479Z,23.2
2023-05-21T22:00:27.344Z,23.2
2023-05-21T22:05:45.694Z,23.2
2023-05-21T22:11:03.670Z,23.2
2023-05-21T22:16:22.189Z,23.2
2023-05-21T22:21:40.198Z,23.2
2023-05-21T22:26:58.554Z,23.2
2023-05-21T22:32:16.868Z,23.2
2023-05-21T22:37:34.995Z,23.2
2023-05-21T22:42:53.001Z,23.2
2023-05-21T22:48:11.015Z,23.2
2023-05-21T22:53:29.316Z,23.2
2023-05-21T22:58:47.968Z,23.2
2023-05-21T23:04:06.292Z,23.2
2023-05-21T23:09:24.805Z,23.2
2023-05-21T23:14:42.976Z,23.2
2023-05-21T23:20:01.147Z,23.2
2023-05-21T23:25:19.470Z,23.2
2023-05-21T23:30:38.214Z,23.2
2023-05-21T23:35:56.807Z,23.2
2023-05-21T23:41:14.989Z,23.3
2023-05-21T23:46:33.547Z,23.3
2023-05-21T23:51:51.491Z,23.3
2023-05-21T23:57:09.623Z,23.3
